createdAt,value
2018-12-03T00:02:01.206Z,10.70
2018-12-03T00:04:30.126Z,10.80
2018-12-03T00:06:58.800Z,10.80
2018-12-03T00:09:27.622Z,10.80
2018-12-03T00:11:56.311Z,10.80
2018-12-03T00:14:25.362Z,10.80
2018-12-03T00:16:54.296Z,10.80
2018-12-03T00:19:23.211Z,10.70
2018-12-03T00:21:52.171Z,10.80
2018-12-03T00:24:20.733Z,10.80
2018-12-03T00:26:49.263Z,10.80
2018-12-03T00:29:17.825Z,10.90
2018-12-03T00:31:46.351Z,11.00
2018-12-03T00:34:14.949Z,11.00
2018-12-03T00:36:43.683Z,10.90
2018-12-03T00:39:12.747Z,11.00
2018-12-03T00:41:41.433Z,11.10
2018-12-03T00:44:10.190Z,11.20
2018-12-03T00:46:39.084Z,11.10
2018-12-03T00:49:07.668Z,11.00
2018-12-03T00:51:36.383Z,11.00
2018-12-03T00:54:05.675Z,11.10
2018-12-03T00:56:34.275Z,11.10
2018-12-03T00:59:02.905Z,11.10
2018-12-03T01:01:36.305Z,11.10
2018-12-03T01:04:05.521Z,11.20
2018-12-03T01:06:34.337Z,11.20
2018-12-03T01:09:03.048Z,11.30
2018-12-03T01:11:31.617Z,11.30
2018-12-03T01:14:00.191Z,11.40
2018-12-03T01:16:28.741Z,11.40
2018-12-03T01:18:57.751Z,11.40
2018-12-03T01:21:26.453Z,11.40
2018-12-03T01:23:55.318Z,11.30
2018-12-03T01:26:23.932Z,11.30
2018-12-03T01:28:52.527Z,11.20
2018-12-03T01:31:21.491Z,11.30
2018-12-03T01:33:50.148Z,11.40
2018-12-03T01:36:18.930Z,11.40
2018-12-03T01:38:47.760Z,11.40
2018-12-03T01:41:16.506Z,11.30
2018-12-03T01:43:45.448Z,11.30
2018-12-03T01:46:14.671Z,11.20
2018-12-03T01:48:43.437Z,11.30
2018-12-03T01:51:12.402Z,11.30
2018-12-03T01:53:41.159Z,11.30
2018-12-03T01:56:09.781Z,11.20
2018-12-03T01:58:38.332Z,11.30
2018-12-03T02:01:07.208Z,11.20
2018-12-03T02:03:35.989Z,11.30
2018-12-03T02:06:04.711Z,11.10
2018-12-03T02:08:33.364Z,11.20
2018-12-03T02:11:02.137Z,11.10
2018-12-03T02:13:30.693Z,11.10
2018-12-03T02:15:59.332Z,11.10
2018-12-03T02:18:27.987Z,11.10
2018-12-03T02:20:56.782Z,11.10
2018-12-03T02:23:25.337Z,11.10
2018-12-03T02:25:53.973Z,11.10
2018-12-03T02:28:22.765Z,11.00
2018-12-03T02:30:51.733Z,11.00
2018-12-03T02:33:20.277Z,11.00
2018-12-03T02:35:48.843Z,11.10
2018-12-03T02:38:17.464Z,11.10
2018-12-03T02:40:46.157Z,11.20
2018-12-03T02:43:14.880Z,11.10
2018-12-03T02:45:43.451Z,11.10
2018-12-03T02:48:11.972Z,11.10
2018-12-03T02:50:40.503Z,11.10
2018-12-03T02:53:09.082Z,11.10
2018-12-03T02:55:38.432Z,11.10
2018-12-03T02:58:07.286Z,11.20
2018-12-03T03:00:39.848Z,11.10
2018-12-03T03:03:08.913Z,11.10
2018-12-03T03:05:37.630Z,11.10
2018-12-03T03:08:06.734Z,11.10
2018-12-03T03:10:35.281Z,11.00
2018-12-03T03:13:03.881Z,11.00
2018-12-03T03:15:32.421Z,11.10
2018-12-03T03:18:01.106Z,11.20
2018-12-03T03:20:29.783Z,11.10
2018-12-03T03:22:58.487Z,11.10
2018-12-03T03:25:27.081Z,11.00
2018-12-03T03:27:55.638Z,10.90
2018-12-03T03:30:24.638Z,10.80
2018-12-03T03:32:58.252Z,10.80
2018-12-03T03:35:26.802Z,10.80
2018-12-03T03:37:55.493Z,10.70
2018-12-03T03:40:24.060Z,10.80
2018-12-03T03:42:52.621Z,10.80
2018-12-03T03:45:23.793Z,10.80
2018-12-03T03:47:52.551Z,10.90
2018-12-03T03:50:21.270Z,10.90
2018-12-03T03:52:49.883Z,10.90
2018-12-03T03:55:18.701Z,11.00
2018-12-03T03:57:47.232Z,11.20
2018-12-03T04:00:16.595Z,11.20
2018-12-03T04:02:45.338Z,11.10
2018-12-03T04:05:15.012Z,11.10
2018-12-03T04:07:45.056Z,11.10
2018-12-03T04:10:14.441Z,11.20
2018-12-03T04:12:44.202Z,11.30
2018-12-03T04:15:14.003Z,11.30
2018-12-03T04:17:42.671Z,11.10
2018-12-03T04:20:16.401Z,11.10
2018-12-03T04:22:49.975Z,11.10
2018-12-03T04:25:18.748Z,11.10
2018-12-03T04:27:47.928Z,11.10
2018-12-03T04:30:17.918Z,11.20
2018-12-03T04:32:46.724Z,11.10
2018-12-03T04:35:15.513Z,11.10
2018-12-03T04:37:44.824Z,11.10
2018-12-03T04:40:14.727Z,11.20
2018-12-03T04:42:43.402Z,11.20
2018-12-03T04:45:14.073Z,11.20
2018-12-03T04:47:42.664Z,11.10
2018-12-03T04:50:16.332Z,11.10
2018-12-03T04:52:44.994Z,11.10
2018-12-03T04:55:15.093Z,11.10
2018-12-03T04:57:43.847Z,11.00
2018-12-03T05:00:14.788Z,11.00
2018-12-03T05:02:44.267Z,11.00
2018-12-03T05:05:12.858Z,11.10
2018-12-03T05:07:41.390Z,11.10
2018-12-03T05:10:13.559Z,11.30
2018-12-03T05:12:43.014Z,11.40
2018-12-03T05:15:12.917Z,11.50
2018-12-03T05:17:41.997Z,11.60
2018-12-03T05:20:14.909Z,11.50
2018-12-03T05:22:44.184Z,11.30
2018-12-03T05:25:12.192Z,11.40
2018-12-03T05:27:40.938Z,11.30
2018-12-03T05:30:11.043Z,11.30
2018-12-03T05:32:40.150Z,11.30
2018-12-03T05:35:15.347Z,11.20
2018-12-03T05:37:44.057Z,11.20
2018-12-03T05:40:15.201Z,11.20
2018-12-03T05:42:43.806Z,8.20
2018-12-03T05:45:12.542Z,11.20
2018-12-03T05:47:41.119Z,11.20
2018-12-03T05:50:13.037Z,11.20
2018-12-03T05:52:42.238Z,11.20
2018-12-03T05:55:12.027Z,11.20
2018-12-03T05:57:41.055Z,11.20
2018-12-03T06:00:12.242Z,11.20
2018-12-03T06:02:40.791Z,11.20
2018-12-03T06:05:10.300Z,11.10
2018-12-03T06:07:38.994Z,11.10
2018-12-03T06:10:15.149Z,11.00
2018-12-03T06:12:43.808Z,11.10
2018-12-03T06:15:13.582Z,11.10
2018-12-03T06:17:42.507Z,11.10
2018-12-03T06:20:12.535Z,11.00
2018-12-03T06:22:41.242Z,11.10
2018-12-03T06:25:11.584Z,11.10
2018-12-03T06:27:40.104Z,11.20
2018-12-03T06:30:15.285Z,11.10
2018-12-03T06:32:43.827Z,11.20
2018-12-03T06:35:13.610Z,11.10
2018-12-03T06:37:42.532Z,11.00
2018-12-03T06:40:14.535Z,10.90
2018-12-03T06:42:43.589Z,10.90
2018-12-03T06:45:14.631Z,11.00
2018-12-03T06:47:53.475Z,11.10
2018-12-03T06:50:22.433Z,11.10
2018-12-03T06:52:51.184Z,11.00
2018-12-03T06:55:19.773Z,11.00
2018-12-03T06:57:48.419Z,10.90
2018-12-03T07:00:18.564Z,11.00
2018-12-03T07:02:47.433Z,10.90
2018-12-03T07:05:15.960Z,10.90
2018-12-03T07:07:45.749Z,10.80
2018-12-03T07:10:15.737Z,10.80
2018-12-03T07:12:44.835Z,10.90
2018-12-03T07:15:15.469Z,10.70
2018-12-03T07:17:44.053Z,10.70
2018-12-03T07:20:13.698Z,10.80
2018-12-03T07:22:42.632Z,10.80
2018-12-03T07:25:12.069Z,10.80
2018-12-03T07:27:40.858Z,10.80
2018-12-03T07:30:16.014Z,10.80
2018-12-03T07:32:45.694Z,10.80
2018-12-03T07:35:14.590Z,10.80
2018-12-03T07:37:43.348Z,10.80
2018-12-03T07:40:12.871Z,10.60
2018-12-03T07:42:42.435Z,10.50
2018-12-03T07:45:12.708Z,10.40
2018-12-03T07:47:41.680Z,10.40
2018-12-03T07:50:11.710Z,10.30
2018-12-03T07:52:40.646Z,10.30
2018-12-03T07:55:13.540Z,10.30
2018-12-03T07:57:44.754Z,10.20
2018-12-03T08:00:15.394Z,10.10
2018-12-03T08:02:43.974Z,10.10
2018-12-03T08:05:12.851Z,10.10
2018-12-03T08:07:41.508Z,10.20
2018-12-03T08:10:13.584Z,10.40
2018-12-03T08:12:42.690Z,10.50
2018-12-03T08:15:13.610Z,10.50
2018-12-03T08:17:43.333Z,10.50
2018-12-03T08:20:51.188Z,10.70
2018-12-03T08:23:33.599Z,10.60
2018-12-03T08:26:02.846Z,10.60
2018-12-03T08:28:31.434Z,10.70
2018-12-03T08:30:59.986Z,11.50
2018-12-03T08:33:29.017Z,10.80
2018-12-03T08:35:57.698Z,10.80
2018-12-03T08:38:26.413Z,10.80
2018-12-03T08:40:55.250Z,10.80
2018-12-03T08:43:23.973Z,10.70
2018-12-03T08:45:58.891Z,10.80
2018-12-03T08:48:30.009Z,10.90
2018-12-03T08:50:58.594Z,10.70
2018-12-03T08:53:27.259Z,10.80
2018-12-03T08:55:55.882Z,10.80
2018-12-03T08:58:24.649Z,10.80
2018-12-03T09:00:53.245Z,10.70
2018-12-03T09:03:23.573Z,10.60
2018-12-03T09:05:52.333Z,10.70
2018-12-03T09:08:21.330Z,10.50
2018-12-03T09:10:50.165Z,10.60
2018-12-03T09:13:20.320Z,10.60
2018-12-03T09:15:56.450Z,10.80
2018-12-03T09:18:29.870Z,10.80
2018-12-03T09:20:59.634Z,10.90
2018-12-03T09:23:28.713Z,10.90
2018-12-03T09:25:57.470Z,10.90
2018-12-03T09:28:26.070Z,10.90
2018-12-03T09:30:54.624Z,11.00
2018-12-03T09:33:23.524Z,11.10
2018-12-03T09:35:52.173Z,11.20
2018-12-03T09:38:20.939Z,11.50
2018-12-03T09:40:49.570Z,11.60
2018-12-03T09:43:18.391Z,11.60
2018-12-03T09:45:47.209Z,11.60
2018-12-03T09:48:15.979Z,11.50
2018-12-03T09:50:44.650Z,11.50
2018-12-03T09:53:13.519Z,11.50
2018-12-03T09:55:42.140Z,11.50
2018-12-03T09:58:12.680Z,11.50
2018-12-03T10:00:41.690Z,12.40
2018-12-03T10:03:18.443Z,11.40
2018-12-03T10:05:55.436Z,11.20
2018-12-03T10:08:31.579Z,11.30
2018-12-03T10:11:02.793Z,11.20
2018-12-03T10:13:32.038Z,11.20
2018-12-03T10:16:01.002Z,11.20
2018-12-03T10:18:29.970Z,11.10
2018-12-03T10:21:00.041Z,11.30
2018-12-03T10:23:28.829Z,11.30
2018-12-03T10:25:59.139Z,11.70
2018-12-03T10:28:28.611Z,11.90
2018-12-03T10:30:58.256Z,12.20
2018-12-03T10:33:31.830Z,12.50
2018-12-03T10:36:02.639Z,12.70
2018-12-03T10:38:34.754Z,12.70
2018-12-03T10:41:09.061Z,12.80
2018-12-03T10:43:37.855Z,12.90
2018-12-03T10:46:07.984Z,12.90
2018-12-03T10:48:36.766Z,13.00
2018-12-03T10:51:10.674Z,13.20
2018-12-03T10:53:39.641Z,13.10
2018-12-03T10:56:08.214Z,12.90
2018-12-03T10:58:38.529Z,12.70
2018-12-03T11:01:13.885Z,12.70
2018-12-03T11:04:01.099Z,12.50
2018-12-03T11:06:30.238Z,12.40
2018-12-03T11:08:59.205Z,12.40
2018-12-03T11:11:27.820Z,12.40
2018-12-03T11:14:03.411Z,12.30
2018-12-03T11:16:34.922Z,12.30
2018-12-03T11:19:03.790Z,12.40
2018-12-03T11:21:32.431Z,12.60
2018-12-03T11:24:01.756Z,12.70
2018-12-03T11:26:34.361Z,12.70
2018-12-03T11:29:04.374Z,12.70
2018-12-03T11:31:34.359Z,12.40
2018-12-03T11:34:34.880Z,12.50
2018-12-03T11:37:02.500Z,12.60
2018-12-03T11:39:34.367Z,12.60
2018-12-03T11:42:01.913Z,12.40
2018-12-03T11:44:29.566Z,12.50
2018-12-03T11:46:57.149Z,12.60
2018-12-03T11:49:24.690Z,12.80
2018-12-03T11:51:52.550Z,12.90
2018-12-03T11:54:20.079Z,13.00
2018-12-03T11:56:47.632Z,12.80
2018-12-03T11:59:15.305Z,12.60
2018-12-03T12:01:42.848Z,12.50
2018-12-03T12:04:10.443Z,12.50
2018-12-03T12:06:38.209Z,12.60
2018-12-03T12:09:07.196Z,12.70
2018-12-03T12:11:34.891Z,12.50
2018-12-03T12:14:02.470Z,12.40
2018-12-03T12:16:30.010Z,12.40
2018-12-03T12:18:57.535Z,12.30
2018-12-03T12:21:25.160Z,12.30
2018-12-03T12:23:52.860Z,12.50
2018-12-03T12:26:20.674Z,12.60
2018-12-03T12:28:48.625Z,12.60
2018-12-03T12:31:16.484Z,12.60
2018-12-03T12:33:44.059Z,12.50
2018-12-03T12:36:11.745Z,12.30
2018-12-03T12:38:39.294Z,12.30
2018-12-03T12:41:06.858Z,12.20
2018-12-03T12:43:34.551Z,12.10
2018-12-03T12:46:02.420Z,12.10
2018-12-03T12:48:29.990Z,12.10
2018-12-03T12:50:57.574Z,11.90
2018-12-03T12:53:25.117Z,11.80
2018-12-03T12:55:52.659Z,11.80
2018-12-03T12:58:20.440Z,11.60
2018-12-03T13:00:47.989Z,11.30
2018-12-03T13:03:15.539Z,11.30
2018-12-03T13:05:43.125Z,11.10
2018-12-03T13:08:10.829Z,11.00
2018-12-03T13:10:38.400Z,11.00
2018-12-03T13:13:05.935Z,11.10
2018-12-03T13:15:33.481Z,11.20
2018-12-03T13:18:01.217Z,11.10
2018-12-03T13:20:28.748Z,11.00
2018-12-03T13:22:56.533Z,10.90
2018-12-03T13:25:24.234Z,10.90
2018-12-03T13:27:52.268Z,11.10
2018-12-03T13:30:20.338Z,11.10
2018-12-03T13:32:48.182Z,11.10
2018-12-03T13:35:15.733Z,11.10
2018-12-03T13:37:43.287Z,11.10
2018-12-03T13:40:11.038Z,11.10
2018-12-03T13:42:38.629Z,11.10
2018-12-03T13:45:07.482Z,11.10
2018-12-03T13:47:35.003Z,11.20
2018-12-03T13:50:02.622Z,11.20
2018-12-03T13:52:30.313Z,11.30
2018-12-03T13:54:57.837Z,11.20
2018-12-03T13:57:25.550Z,11.30
2018-12-03T13:59:53.094Z,11.30
2018-12-03T14:02:20.757Z,11.20
2018-12-03T14:04:48.333Z,11.30
2018-12-03T14:07:15.898Z,11.30
2018-12-03T14:09:43.740Z,14.30
2018-12-03T14:12:11.385Z,10.90
2018-12-03T14:14:39.121Z,11.00
2018-12-03T14:17:06.823Z,10.80
2018-12-03T14:19:34.651Z,11.00
2018-12-03T14:22:02.306Z,10.90
2018-12-03T14:24:29.921Z,10.80
2018-12-03T14:26:57.493Z,10.90
2018-12-03T14:29:25.067Z,10.70
2018-12-03T14:31:52.622Z,10.80
2018-12-03T14:34:20.249Z,10.80
2018-12-03T14:36:48.060Z,10.60
2018-12-03T14:39:15.640Z,10.70
2018-12-03T14:41:43.407Z,10.60
2018-12-03T14:44:11.032Z,10.70
2018-12-03T14:46:38.873Z,10.70
2018-12-03T14:49:06.460Z,10.60
2018-12-03T14:51:34.026Z,10.60
2018-12-03T14:54:01.612Z,10.50
2018-12-03T14:56:29.171Z,10.60
2018-12-03T14:58:56.778Z,10.50
2018-12-03T15:01:24.327Z,10.60
2018-12-03T15:03:51.920Z,10.50
2018-12-03T15:06:19.453Z,10.40
2018-12-03T15:08:47.047Z,10.30
2018-12-03T15:11:14.778Z,10.40
2018-12-03T15:13:42.323Z,10.30
2018-12-03T15:16:10.099Z,10.40
2018-12-03T15:18:37.650Z,10.40
2018-12-03T15:21:05.410Z,10.30
2018-12-03T15:23:32.968Z,10.30
2018-12-03T15:26:00.559Z,10.40
2018-12-03T15:28:28.199Z,10.50
2018-12-03T15:30:55.802Z,10.40
2018-12-03T15:33:23.822Z,10.60
2018-12-03T15:35:51.747Z,10.60
2018-12-03T15:38:19.360Z,10.60
2018-12-03T15:40:46.903Z,10.80
2018-12-03T15:43:14.757Z,10.70
2018-12-03T15:45:43.169Z,10.70
2018-12-03T15:48:10.912Z,10.70
2018-12-03T15:50:38.652Z,10.60
2018-12-03T15:53:06.503Z,10.50
2018-12-03T15:55:34.157Z,10.40
2018-12-03T15:58:01.859Z,10.40
2018-12-03T16:00:29.513Z,10.30
2018-12-03T16:02:57.080Z,10.40
2018-12-03T16:05:24.607Z,10.40
2018-12-03T16:07:52.317Z,10.30
2018-12-03T16:10:19.869Z,10.20
2018-12-03T16:12:47.400Z,10.30
2018-12-03T16:15:15.177Z,10.50
2018-12-03T16:17:42.861Z,10.50
2018-12-03T16:20:10.566Z,10.60
2018-12-03T16:22:38.087Z,10.50
2018-12-03T16:25:05.654Z,10.50
2018-12-03T16:27:33.392Z,10.40
2018-12-03T16:30:01.154Z,10.30
2018-12-03T16:32:28.680Z,10.40
2018-12-03T16:34:56.234Z,10.50
2018-12-03T16:37:23.718Z,10.60
2018-12-03T16:39:51.295Z,10.70
2018-12-03T16:42:18.855Z,10.60
2018-12-03T16:44:46.404Z,10.70
2018-12-03T16:47:13.945Z,10.70
2018-12-03T16:49:41.464Z,10.60
2018-12-03T16:52:09.084Z,10.50
2018-12-03T16:54:36.644Z,10.60
2018-12-03T16:57:04.369Z,10.50
2018-12-03T16:59:32.310Z,10.60
2018-12-03T17:02:00.015Z,10.60
2018-12-03T17:04:27.630Z,10.50
2018-12-03T17:06:55.269Z,10.50
2018-12-03T17:09:22.824Z,10.50
2018-12-03T17:11:50.420Z,10.40
2018-12-03T17:14:17.966Z,10.50
2018-12-03T17:16:45.630Z,10.50
2018-12-03T17:19:13.201Z,10.40
2018-12-03T17:21:41.563Z,10.30
2018-12-03T17:24:09.152Z,10.30
2018-12-03T17:26:36.785Z,10.40
2018-12-03T17:29:04.520Z,10.40
2018-12-03T17:31:32.095Z,10.50
2018-12-03T17:33:59.836Z,10.40
2018-12-03T17:36:27.403Z,10.50
2018-12-03T17:38:55.044Z,10.60
2018-12-03T17:41:22.601Z,10.60
2018-12-03T17:43:50.154Z,10.60
2018-12-03T17:46:17.791Z,10.60
2018-12-03T17:48:45.332Z,10.50
2018-12-03T17:51:12.934Z,10.60
2018-12-03T17:53:40.551Z,10.50
2018-12-03T17:56:08.238Z,10.50
2018-12-03T17:58:35.788Z,10.40
2018-12-03T18:01:03.815Z,10.60
2018-12-03T18:03:31.892Z,10.40
2018-12-03T18:05:59.973Z,10.40
2018-12-03T18:08:27.604Z,10.40
2018-12-03T18:10:55.217Z,10.40
2018-12-03T18:13:22.861Z,10.40
2018-12-03T18:15:50.589Z,10.40
2018-12-03T18:18:18.293Z,10.40
2018-12-03T18:20:45.829Z,10.50
2018-12-03T18:23:13.695Z,10.50
2018-12-03T18:25:41.244Z,10.50
2018-12-03T18:28:08.846Z,10.60
2018-12-03T18:30:36.428Z,10.60
2018-12-03T18:33:03.995Z,10.60
2018-12-03T18:35:31.519Z,10.40
2018-12-03T18:37:59.414Z,10.40
2018-12-03T18:40:27.146Z,10.30
2018-12-03T18:42:54.971Z,10.20
2018-12-03T18:45:22.507Z,10.20
2018-12-03T18:47:50.173Z,10.20
2018-12-03T18:50:17.699Z,10.20
2018-12-03T18:52:45.342Z,10.40
2018-12-03T18:55:13.204Z,10.40
2018-12-03T18:57:40.739Z,10.40
2018-12-03T19:00:10.812Z,10.40
2018-12-03T19:02:38.435Z,10.40
2018-12-03T19:05:06.191Z,10.50
2018-12-03T19:07:34.017Z,10.50
2018-12-03T19:10:01.556Z,10.50
2018-12-03T19:12:29.106Z,10.50
2018-12-03T19:14:56.646Z,10.50
2018-12-03T19:17:24.391Z,10.50
2018-12-03T19:19:52.316Z,10.50
2018-12-03T19:22:19.866Z,10.50
2018-12-03T19:24:47.414Z,10.40
2018-12-03T19:27:15.156Z,10.50
2018-12-03T19:29:42.794Z,10.50
2018-12-03T19:32:10.359Z,10.50
2018-12-03T19:34:37.879Z,10.60
2018-12-03T19:37:05.438Z,10.50
2018-12-03T19:39:32.978Z,10.40
2018-12-03T19:42:00.541Z,10.50
2018-12-03T19:44:28.457Z,10.50
2018-12-03T19:46:56.172Z,10.50
2018-12-03T19:49:23.994Z,10.50
2018-12-03T19:51:51.581Z,10.60
2018-12-03T19:54:19.381Z,10.60
2018-12-03T19:56:46.975Z,10.60
2018-12-03T19:59:14.566Z,10.50
2018-12-03T20:01:42.263Z,10.50
2018-12-03T20:04:21.071Z,10.50
2018-12-03T20:06:48.926Z,10.60
2018-12-03T20:09:16.597Z,10.50
2018-12-03T20:11:44.362Z,10.50
2018-12-03T20:14:11.887Z,10.50
2018-12-03T20:16:39.500Z,10.40
2018-12-03T20:19:07.240Z,10.40
2018-12-03T20:21:35.110Z,10.30
2018-12-03T20:24:02.876Z,10.30
2018-12-03T20:26:30.615Z,10.30
2018-12-03T20:28:58.271Z,10.20
2018-12-03T20:31:27.010Z,10.20
2018-12-03T20:33:54.578Z,10.10
2018-12-03T20:36:22.180Z,10.10
2018-12-03T20:38:49.796Z,10.00
2018-12-03T20:41:17.540Z,10.00
2018-12-03T20:43:45.100Z,10.10
2018-12-03T20:46:12.743Z,9.90
2018-12-03T20:48:40.937Z,9.80
2018-12-03T20:51:09.444Z,9.80
2018-12-03T20:53:37.180Z,9.70
2018-12-03T20:56:04.706Z,9.80
2018-12-03T20:58:32.265Z,9.70
2018-12-03T21:01:00.017Z,9.80
2018-12-03T21:03:27.690Z,9.90
2018-12-03T21:05:55.419Z,9.90
2018-12-03T21:08:22.934Z,9.80
2018-12-03T21:10:50.545Z,9.90
2018-12-03T21:13:18.194Z,9.80
2018-12-03T21:15:45.737Z,9.90
2018-12-03T21:18:13.423Z,9.90
2018-12-03T21:20:41.115Z,9.90
2018-12-03T21:23:08.671Z,9.90
2018-12-03T21:25:36.210Z,9.90
2018-12-03T21:28:03.740Z,9.90
2018-12-03T21:30:31.328Z,9.80
2018-12-03T21:32:58.869Z,9.80
2018-12-03T21:35:26.601Z,9.80
2018-12-03T21:37:54.381Z,9.70
2018-12-03T21:40:21.966Z,9.70
2018-12-03T21:42:49.527Z,9.60
2018-12-03T21:45:17.254Z,9.70
2018-12-03T21:47:44.809Z,9.70
2018-12-03T21:50:12.380Z,9.70
2018-12-03T21:52:40.062Z,9.70
2018-12-03T21:55:07.630Z,9.70
2018-12-03T21:57:35.186Z,9.80
2018-12-03T22:00:02.786Z,9.70
2018-12-03T22:02:30.539Z,9.70
2018-12-03T22:04:58.246Z,9.70
2018-12-03T22:07:26.070Z,9.70
2018-12-03T22:09:53.766Z,9.70
2018-12-03T22:12:21.351Z,9.70
2018-12-03T22:14:48.896Z,9.60
2018-12-03T22:17:16.534Z,9.70
2018-12-03T22:19:44.266Z,9.60
2018-12-03T22:22:11.850Z,9.60
2018-12-03T22:24:39.382Z,9.60
2018-12-03T22:27:06.946Z,9.70
2018-12-03T22:29:34.470Z,9.80
2018-12-03T22:32:02.036Z,9.80
2018-12-03T22:34:29.779Z,9.70
2018-12-03T22:36:57.354Z,9.70
2018-12-03T22:39:24.900Z,9.70
2018-12-03T22:41:52.575Z,9.60
2018-12-03T22:44:20.114Z,9.60
2018-12-03T22:46:47.753Z,9.60
2018-12-03T22:49:15.563Z,9.60
2018-12-03T22:51:43.388Z,9.70
2018-12-03T22:54:10.932Z,9.70
2018-12-03T22:56:38.467Z,9.70
2018-12-03T22:59:06.056Z,9.60
2018-12-03T23:01:33.621Z,9.60
2018-12-03T23:04:01.222Z,9.60
2018-12-03T23:06:28.756Z,9.70
2018-12-03T23:08:56.486Z,9.60
2018-12-03T23:11:24.014Z,9.70
2018-12-03T23:13:51.762Z,9.60
2018-12-03T23:16:19.299Z,9.60
2018-12-03T23:18:46.854Z,9.50
2018-12-03T23:21:14.413Z,9.50
2018-12-03T23:23:42.060Z,9.50
2018-12-03T23:26:09.612Z,9.50
2018-12-03T23:28:37.165Z,9.50
2018-12-03T23:31:04.728Z,9.50
2018-12-03T23:33:32.260Z,8.30
2018-12-03T23:35:59.995Z,9.50
2018-12-03T23:38:27.730Z,9.40
2018-12-03T23:40:55.473Z,9.20
2018-12-03T23:43:23.058Z,9.30
2018-12-03T23:45:50.744Z,9.30
2018-12-03T23:48:18.266Z,9.30
2018-12-03T23:50:45.984Z,9.30
2018-12-03T23:53:13.630Z,9.30
2018-12-03T23:55:41.388Z,9.20
2018-12-03T23:58:08.910Z,9.20
